Aeroporto :
LOGIN :

Iscrizione | Disclaimer

   EN    FR    IT 

 










Sommario :    VFR   VFR Marginale   IFR   IFR Intensivo   IFR Molto Intensivo
Visibilità : 
Base nubi : 
>= 8 km
>= 3000ft
5 / 8 km
1000 / 3000 ft
1500m / 5 km
500 / 1000 ft
800 / 1500m
200 / 500 ft
< 800m
< 200 ft
Simboli :   Temporali  Nebbia  Neve Forte  Precipitazioni Forti  Vento > 20 kt
SIGMETs :   Varie  Temporali  Ghiacco  Turbolenza  Onda orograficha  Ceneri Vulcaniche






- Altitudine del aeroporto : 423 ft
- Codice IATA : PIS


LFBI - Poitiers

ULTIMO METAR :
  • 180400Z AUTO 18004KT 9999 SCT036 BKN210 OVC230 02/02 Q1029 TEMPO 4000 BR

METARs OBSOLETI :
  • 180330Z AUTO 18005KT CAVOK 02/02 Q1029 TEMPO 4000 BR
  • 180300Z AUTO 19006KT CAVOK 01/01 Q1029 NOSIG
  • 180230Z AUTO 21007KT CAVOK 01/01 Q1029 NOSIG
  • 180200Z AUTO 21010KT 9999 FEW032 BKN058 01/01 Q1029 NOSIG
  • 180130Z AUTO 20006KT CAVOK 02/01 Q1029 NOSIG

TAF TAF LFBI
Valido dal 18 a 00 ore il 19 a 00 ore UTC


172300Z 1800/1824 21007KT CAVOK
PROB30 1805/1808 4000 BR
BECMG 1815/1817 06010KT



MetMap, La meteo Aeronautica in un colpo d'occhio ! - Copyright ORBIFLY Dicembre 2007 - Disclaimer

ORBIFLY MET'MAP TEAM :

Programmazione e sviluppo : Alexandra Zaïnal
Concezione : Baudouin d'Aumeries
Aiuto per la programmazione : Marc-Olivier Méhu
Supporto tecnico e logistico : Manuel Goepfert
Aiuto per la traduzione : Arnaldo La Scala

Contatto : metmap@orbifly.com




FONTI E CREDITI :

   NOAA